Time;durP1;ratioP1;P1;durP2;ratioP2;P2;SDS_P1;SDS_P2;PMS_P1;PMS_P2;Temp;Humidity;BMP_temperature;BMP_pressure;BME280_temperature;BME280_humidity;BME280_pressure;Samples;Min_cycle;Max_cycle;Signal;HPM_P1;HPM_P2
2023/06/23 00:01:36;;;;;;;3.53;3.22;;;22.60;61.30;;;;;;5037904;28;20177;-83
2023/06/23 00:04:02;;;;;;;3.83;3.20;;;22.60;61.30;;;;;;5055166;28;20612;-82
2023/06/23 00:06:28;;;;;;;3.70;3.17;;;22.60;61.40;;;;;;5037142;28;20621;-83
2023/06/23 00:08:54;;;;;;;3.30;3.00;;;22.60;61.40;;;;;;5053834;28;20215;-83
2023/06/23 00:11:20;;;;;;;3.97;3.25;;;22.60;61.40;;;;;;5053864;28;20521;-83
2023/06/23 00:13:46;;;;;;;3.85;3.35;;;22.60;61.40;;;;;;5054058;28;20721;-83
2023/06/23 00:16:12;;;;;;;3.40;3.10;;;22.60;61.40;;;;;;5054362;28;20166;-83
2023/06/23 00:18:39;;;;;;;4.13;3.40;;;22.60;61.50;;;;;;5053596;28;20727;-83
2023/06/23 00:21:06;;;;;;;4.22;3.70;;;22.60;61.40;;;;;;5036988;28;20304;-82
2023/06/23 00:23:32;;;;;;;3.60;3.20;;;22.60;61.40;;;;;;5053694;28;20182;-82
2023/06/23 00:25:58;;;;;;;3.92;3.53;;;22.50;61.40;;;;;;5053591;28;20197;-82
2023/06/23 00:28:25;;;;;;;3.78;3.25;;;22.50;61.40;;;;;;5036901;28;20177;-81
2023/06/23 00:30:53;;;;;;;3.85;3.42;;;22.50;61.50;;;;;;5053442;28;20196;-82
2023/06/23 00:33:19;;;;;;;3.25;2.92;;;22.50;61.50;;;;;;5053566;28;20161;-83
2023/06/23 00:35:45;;;;;;;3.75;3.35;;;22.60;61.60;;;;;;5053438;28;20584;-83
2023/06/23 00:38:11;;;;;;;3.55;3.10;;;22.50;61.60;;;;;;5053271;28;20275;-83
2023/06/23 00:40:38;;;;;;;3.80;3.40;;;22.60;61.60;;;;;;5053560;28;20597;-82
2023/06/23 00:43:03;;;;;;;3.58;3.20;;;22.50;61.60;;;;;;5037019;28;20162;-83
2023/06/23 00:45:30;;;;;;;3.92;3.30;;;22.50;61.60;;;;;;5054422;28;20160;-82
2023/06/23 00:47:55;;;;;;;3.60;3.25;;;22.50;61.70;;;;;;5052931;28;20685;-82
2023/06/23 00:50:22;;;;;;;3.80;3.40;;;22.50;61.70;;;;;;5003616;28;20217;-82
2023/06/23 00:52:51;;;;;;;3.47;2.92;;;22.50;61.70;;;;;;5036634;28;20254;-81
2023/06/23 00:55:19;;;;;;;3.67;3.28;;;22.50;61.70;;;;;;5054189;28;20562;-81
2023/06/23 00:57:46;;;;;;;4.07;3.33;;;22.40;61.70;;;;;;5036378;28;20182;-82
2023/06/23 01:00:18;;;;;;;3.97;3.40;;;22.50;61.70;;;;;;5054141;28;20226;-83
2023/06/23 01:02:46;;;;;;;3.70;3.17;;;22.50;61.80;;;;;;5037192;28;20200;-83
2023/06/23 01:05:12;;;;;;;3.88;3.30;;;22.50;61.70;;;;;;5036349;28;20204;-83
2023/06/23 01:07:42;;;;;;;3.72;3.30;;;22.50;61.80;;;;;;5054148;28;20185;-82
2023/06/23 01:10:14;;;;;;;4.20;3.47;;;22.50;61.70;;;;;;5054107;28;20158;-82
2023/06/23 01:13:03;;;;;;;3.78;3.38;;;22.50;61.80;;;;;;5035943;28;20169;-82
2023/06/23 01:15:33;;;;;;;3.53;3.17;;;22.50;61.80;;;;;;5036068;28;20678;-83
2023/06/23 01:18:13;;;;;;;3.30;2.78;;;22.50;61.90;;;;;;5053726;28;20648;-83
2023/06/23 01:20:41;;;;;;;4.30;3.58;;;22.50;61.90;;;;;;5036287;28;20285;-82
2023/06/23 01:23:26;;;;;;;3.90;3.40;;;22.50;61.80;;;;;;5036013;28;20151;-82
2023/06/23 01:26:09;;;;;;;3.50;3.20;;;22.50;62.00;;;;;;5035887;28;20154;-82
2023/06/23 01:28:52;;;;;;;4.22;3.60;;;22.50;62.00;;;;;;5034903;28;20650;-83
2023/06/23 01:31:24;;;;;;;3.75;3.22;;;22.50;62.00;;;;;;5035863;28;20154;-82
2023/06/23 01:33:56;;;;;;;4.10;3.42;;;22.40;62.00;;;;;;5053526;28;20150;-82
2023/06/23 01:36:27;;;;;;;3.60;3.13;;;22.50;62.00;;;;;;5053571;28;20154;-83
2023/06/23 01:38:57;;;;;;;4.20;3.60;;;22.50;62.00;;;;;;5035757;28;20190;-84
2023/06/23 01:41:24;;;;;;;3.80;3.28;;;22.40;62.00;;;;;;5019056;28;20168;-83
2023/06/23 01:43:53;;;;;;;4.05;3.58;;;22.40;62.00;;;;;;5053434;28;20234;-82
2023/06/23 01:46:25;;;;;;;3.63;3.22;;;22.40;62.00;;;;;;5035899;28;20154;-82
2023/06/23 01:48:54;;;;;;;3.67;3.30;;;22.40;62.00;;;;;;5035213;28;20229;-81
2023/06/23 01:51:19;;;;;;;4.03;3.50;;;22.40;62.00;;;;;;5003841;28;20177;-81
2023/06/23 01:53:45;;;;;;;3.47;3.03;;;22.40;62.10;;;;;;5018968;28;20170;-82
2023/06/23 01:56:11;;;;;;;4.20;3.42;;;22.40;62.10;;;;;;5053249;28;20613;-81
2023/06/23 01:58:38;;;;;;;4.05;3.35;;;22.40;62.10;;;;;;5035292;28;20182;-83
2023/06/23 02:01:04;;;;;;;4.13;3.60;;;22.40;62.00;;;;;;5035533;28;20169;-82
2023/06/23 02:03:30;;;;;;;4.15;3.20;;;22.50;62.20;;;;;;5053169;28;20517;-82
2023/06/23 02:05:56;;;;;;;3.85;3.42;;;22.40;62.10;;;;;;5019140;28;20162;-82
2023/06/23 02:08:23;;;;;;;3.50;3.17;;;22.40;62.20;;;;;;5035522;28;20168;-83
2023/06/23 02:10:53;;;;;;;3.78;3.33;;;22.40;62.20;;;;;;5035371;28;20161;-83
2023/06/23 02:13:19;;;;;;;3.83;3.35;;;22.30;62.20;;;;;;5035480;28;20239;-83
2023/06/23 02:15:46;;;;;;;3.63;3.20;;;22.40;62.30;;;;;;5035229;28;20209;-83
2023/06/23 02:18:12;;;;;;;4.20;3.55;;;22.40;62.20;;;;;;5035340;28;20182;-83
2023/06/23 02:20:38;;;;;;;3.88;3.35;;;22.40;62.20;;;;;;5018680;28;20532;-82
2023/06/23 02:23:04;;;;;;;3.60;3.20;;;22.30;62.30;;;;;;5035226;28;20628;-82
2023/06/23 02:25:30;;;;;;;4.55;3.60;;;22.30;62.30;;;;;;5019017;28;20173;-82
2023/06/23 02:27:56;;;;;;;4.13;3.30;;;22.30;62.30;;;;;;5052868;28;20249;-83
2023/06/23 02:30:22;;;;;;;4.07;3.50;;;22.30;62.30;;;;;;5052833;28;20170;-83
2023/06/23 02:32:47;;;;;;;4.70;3.70;;;22.30;62.30;;;;;;5053011;28;20250;-82
2023/06/23 02:35:14;;;;;;;4.38;3.47;;;22.30;62.30;;;;;;5052736;28;20189;-83
2023/06/23 02:37:41;;;;;;;3.50;3.20;;;22.30;62.30;;;;;;5018467;28;20204;-83
2023/06/23 02:40:10;;;;;;;3.78;3.35;;;22.40;62.30;;;;;;5021664;28;20165;-83
2023/06/23 02:42:40;;;;;;;3.70;3.20;;;22.40;62.30;;;;;;5039060;28;20151;-83
2023/06/23 02:45:08;;;;;;;3.85;3.45;;;22.30;62.20;;;;;;5038919;28;20560;-83
2023/06/23 02:47:36;;;;;;;3.85;3.28;;;22.40;62.40;;;;;;5039007;28;20241;-83
2023/06/23 02:50:03;;;;;;;3.78;3.38;;;22.40;62.40;;;;;;5022045;28;20245;-83
2023/06/23 02:52:30;;;;;;;4.43;3.70;;;22.30;62.40;;;;;;5023081;28;20185;-83
2023/06/23 02:54:56;;;;;;;3.60;3.28;;;22.30;62.30;;;;;;5039165;28;20253;-82
2023/06/23 02:57:21;;;;;;;3.75;3.42;;;22.30;62.40;;;;;;5022440;28;20340;-82
2023/06/23 02:59:49;;;;;;;4.00;3.45;;;22.30;62.50;;;;;;5022276;28;20173;-83
2023/06/23 03:02:15;;;;;;;4.20;3.50;;;22.30;62.50;;;;;;5056322;28;20162;-83
2023/06/23 03:04:41;;;;;;;4.28;3.78;;;22.30;62.50;;;;;;5038833;28;20624;-83
2023/06/23 03:07:10;;;;;;;4.05;3.47;;;22.30;62.50;;;;;;5056334;28;20245;-83
2023/06/23 03:09:36;;;;;;;4.03;3.40;;;22.30;62.60;;;;;;5038903;28;20230;-83
2023/06/23 03:12:02;;;;;;;4.35;3.60;;;22.20;62.50;;;;;;5038334;28;20150;-82
2023/06/23 03:14:28;;;;;;;4.10;3.53;;;22.30;62.60;;;;;;5022281;28;20261;-83
2023/06/23 03:16:59;;;;;;;4.55;3.70;;;22.30;62.60;;;;;;5022067;28;20208;-83
2023/06/23 03:19:50;;;;;;;3.33;3.03;;;22.30;62.60;;;;;;5038624;28;20166;-82
2023/06/23 03:22:29;;;;;;;3.97;3.58;;;22.30;62.60;;;;;;5038505;28;20242;-83
2023/06/23 03:25:02;;;;;;;4.55;3.55;;;22.20;62.50;;;;;;5038378;28;20169;-83
2023/06/23 03:27:28;;;;;;;3.90;3.50;;;22.30;62.50;;;;;;5038665;28;20158;-83
2023/06/23 03:29:56;;;;;;;4.75;3.60;;;22.30;62.60;;;;;;5055811;28;20162;-83
2023/06/23 03:32:26;;;;;;;3.90;3.38;;;22.30;62.60;;;;;;5021403;28;20174;-83
2023/06/23 03:34:56;;;;;;;4.22;3.58;;;22.30;62.60;;;;;;5056620;28;20208;-83
2023/06/23 03:37:23;;;;;;;4.20;3.70;;;22.30;62.60;;;;;;5056788;28;20186;-82
2023/06/23 03:39:50;;;;;;;4.38;3.72;;;22.20;62.60;;;;;;5056912;28;20162;-82
2023/06/23 03:42:17;;;;;;;4.63;3.60;;;22.30;62.60;;;;;;5039514;28;20197;-83
2023/06/23 03:44:48;;;;;;;3.78;3.33;;;22.30;62.70;;;;;;5039242;28;20257;-83
2023/06/23 03:47:21;;;;;;;4.45;3.80;;;22.30;62.60;;;;;;4989346;28;20228;-83
2023/06/23 03:49:56;;;;;;;3.63;3.20;;;22.30;62.60;;;;;;4988694;28;20241;-83
2023/06/23 03:52:23;;;;;;;4.18;3.53;;;22.30;62.60;;;;;;5005217;28;20181;-83
2023/06/23 03:54:52;;;;;;;3.72;3.30;;;22.30;62.60;;;;;;5057088;28;20182;-83
2023/06/23 03:57:20;;;;;;;4.00;3.60;;;22.20;62.40;;;;;;5038749;28;20182;-83
2023/06/23 03:59:45;;;;;;;4.18;3.40;;;22.20;62.50;;;;;;5022419;28;20190;-83
2023/06/23 04:02:12;;;;;;;3.47;3.17;;;22.30;62.40;;;;;;5022257;28;20189;-83
2023/06/23 04:04:39;;;;;;;3.75;3.38;;;22.30;62.30;;;;;;5022292;28;20158;-84
2023/06/23 04:07:08;;;;;;;3.47;3.17;;;22.40;62.20;;;;;;5039032;28;20170;-83
2023/06/23 04:09:34;;;;;;;4.20;3.10;;;22.40;62.10;;;;;;4988865;28;20178;-82
2023/06/23 04:12:04;;;;;;;3.42;3.13;;;22.40;62.00;;;;;;5056842;28;20233;-83
2023/06/23 04:14:30;;;;;;;4.05;3.38;;;22.40;62.20;;;;;;5005221;28;20193;-83
2023/06/23 04:17:00;;;;;;;4.15;3.65;;;22.40;62.10;;;;;;5056000;28;20181;-83
2023/06/23 04:19:27;;;;;;;4.13;3.33;;;22.40;62.20;;;;;;4988845;28;20174;-83
2023/06/23 04:21:54;;;;;;;4.25;3.60;;;22.40;62.20;;;;;;5021685;28;20671;-83
2023/06/23 04:24:24;;;;;;;3.22;2.88;;;22.40;62.10;;;;;;5021574;28;20169;-83
2023/06/23 04:26:52;;;;;;;4.10;3.40;;;22.40;62.20;;;;;;4988543;28;20186;-82
2023/06/23 04:29:18;;;;;;;4.20;3.60;;;22.40;62.10;;;;;;5055869;28;20158;-83
2023/06/23 04:31:44;;;;;;;3.95;3.35;;;22.50;62.00;;;;;;5021149;28;20165;-83
2023/06/23 04:34:10;;;;;;;4.70;3.85;;;22.50;62.00;;;;;;5021476;28;20193;-83
2023/06/23 04:36:44;;;;;;;4.20;3.60;;;22.50;61.70;;;;;;5021887;28;20245;-83
2023/06/23 04:39:29;;;;;;;4.50;3.45;;;22.50;61.60;;;;;;4973175;28;20192;-83
2023/06/23 04:41:56;;;;;;;3.65;3.15;;;22.50;61.70;;;;;;5021938;28;20162;-83
2023/06/23 04:44:23;;;;;;;3.60;3.20;;;22.50;61.70;;;;;;5021504;28;20244;-83
2023/06/23 04:46:49;;;;;;;4.05;3.42;;;22.60;61.60;;;;;;5055750;28;20204;-83
2023/06/23 04:49:20;;;;;;;4.03;3.50;;;22.60;61.60;;;;;;5037537;28;20214;-83
2023/06/23 04:51:46;;;;;;;3.80;3.40;;;22.60;61.60;;;;;;5004814;28;20213;-83
2023/06/23 04:54:22;;;;;;;3.75;3.33;;;22.60;61.40;;;;;;5055630;28;20154;-83
2023/06/23 04:56:49;;;;;;;3.80;3.20;;;22.60;61.40;;;;;;5038042;28;20608;-83
2023/06/23 04:59:18;;;;;;;4.22;3.47;;;22.60;61.30;;;;;;5038070;28;20155;-83
2023/06/23 05:01:44;;;;;;;3.40;2.97;;;22.70;61.30;;;;;;5037898;28;20166;-83
2023/06/23 05:04:10;;;;;;;3.67;3.22;;;22.60;61.20;;;;;;5055469;28;20229;-83
2023/06/23 05:06:36;;;;;;;4.00;3.20;;;22.60;61.20;;;;;;5055717;28;20289;-83
2023/06/23 05:09:03;;;;;;;4.00;3.33;;;22.60;61.20;;;;;;5037697;28;20264;-83
2023/06/23 05:11:28;;;;;;;3.38;3.03;;;22.70;61.20;;;;;;5021333;28;20273;-83
2023/06/23 05:13:54;;;;;;;3.70;3.30;;;22.70;61.20;;;;;;5021073;28;20178;-83
2023/06/23 05:16:20;;;;;;;3.80;3.40;;;22.70;61.20;;;;;;5021548;28;20192;-83
2023/06/23 05:18:46;;;;;;;3.95;3.35;;;22.70;61.10;;;;;;5055231;28;20185;-83
2023/06/23 05:21:17;;;;;;;4.15;3.70;;;22.70;61.10;;;;;;5037255;28;20185;-83
2023/06/23 05:23:44;;;;;;;3.83;3.33;;;22.70;61.10;;;;;;4971870;28;20178;-83
2023/06/23 05:26:11;;;;;;;3.40;3.03;;;22.70;61.10;;;;;;5020454;28;20660;-83
2023/06/23 05:28:37;;;;;;;3.72;3.17;;;22.70;61.10;;;;;;5054709;28;20162;-83
2023/06/23 05:31:07;;;;;;;3.85;3.25;;;22.70;61.10;;;;;;5054813;28;20213;-83
2023/06/23 05:33:36;;;;;;;3.67;3.33;;;22.70;61.00;;;;;;4986974;28;20187;-83
2023/06/23 05:36:02;;;;;;;3.80;3.40;;;22.70;61.10;;;;;;5036998;28;20524;-83
2023/06/23 05:38:29;;;;;;;4.00;3.58;;;22.70;61.40;;;;;;5054694;28;20660;-83
2023/06/23 05:40:55;;;;;;;3.80;3.38;;;22.60;61.80;;;;;;5020165;28;20169;-83
2023/06/23 05:43:21;;;;;;;3.85;3.45;;;22.50;62.20;;;;;;5054371;28;20161;-83
2023/06/23 05:45:47;;;;;;;3.67;3.30;;;22.50;62.70;;;;;;5036332;28;20242;-83
2023/06/23 05:48:29;;;;;;;4.00;3.50;;;22.50;62.50;;;;;;5035957;28;20205;-83
2023/06/23 05:50:56;;;;;;;3.50;3.20;;;22.50;62.90;;;;;;5039027;28;20154;-83
2023/06/23 05:53:23;;;;;;;3.90;3.55;;;22.50;63.40;;;;;;5019796;28;20209;-83
2023/06/23 05:56:03;;;;;;;3.67;3.28;;;22.50;63.00;;;;;;5036782;28;20154;-83
2023/06/23 05:58:33;;;;;;;4.03;3.60;;;22.50;62.90;;;;;;5036264;28;20211;-83
2023/06/23 06:01:00;;;;;;;3.75;3.38;;;22.50;63.00;;;;;;5036187;28;20172;-83
2023/06/23 06:03:29;;;;;;;4.20;3.50;;;22.60;63.40;;;;;;5019750;28;20177;-83
2023/06/23 06:05:56;;;;;;;3.83;3.50;;;22.60;62.90;;;;;;5036400;28;20628;-83
2023/06/23 06:08:22;;;;;;;3.70;3.22;;;22.60;63.40;;;;;;5036174;28;20253;-83
2023/06/23 06:10:48;;;;;;;3.78;3.47;;;22.80;63.00;;;;;;5054337;28;20208;-83
2023/06/23 06:13:14;;;;;;;4.47;3.72;;;22.70;63.00;;;;;;5035865;28;20166;-83
2023/06/23 06:15:40;;;;;;;4.07;3.67;;;22.60;62.80;;;;;;5054072;28;20166;-83
2023/06/23 06:18:07;;;;;;;4.20;3.78;;;22.70;63.00;;;;;;5054176;28;20196;-83
2023/06/23 06:20:33;;;;;;;4.35;3.50;;;22.60;63.20;;;;;;5036371;28;20188;-83
2023/06/23 06:22:59;;;;;;;4.25;3.63;;;22.70;63.10;;;;;;5054199;28;20643;-83
2023/06/23 06:25:26;;;;;;;4.00;3.45;;;22.60;63.10;;;;;;5036503;28;20157;-83
2023/06/23 06:27:52;;;;;;;4.57;4.18;;;22.80;63.00;;;;;;5019908;28;20173;-83
2023/06/23 06:30:18;;;;;;;4.30;3.90;;;22.70;62.80;;;;;;5036355;28;20163;-83
2023/06/23 06:32:44;;;;;;;4.10;3.60;;;22.70;63.30;;;;;;5020408;28;20174;-83
2023/06/23 06:35:10;;;;;;;3.88;3.28;;;22.70;63.30;;;;;;5020222;28;20170;-83
2023/06/23 06:37:38;;;;;;;4.15;3.75;;;22.70;63.30;;;;;;5019841;28;20635;-83
2023/06/23 06:40:05;;;;;;;4.10;3.70;;;22.70;63.30;;;;;;5036324;28;20512;-83
2023/06/23 06:42:36;;;;;;;4.10;3.70;;;22.70;63.00;;;;;;5035862;28;20158;-83
2023/06/23 06:45:04;;;;;;;3.92;3.50;;;22.70;63.20;;;;;;5002951;28;20182;-83
2023/06/23 06:47:30;;;;;;;4.60;4.10;;;22.80;63.00;;;;;;5053834;28;20160;-83
2023/06/23 06:49:57;;;;;;;4.13;3.70;;;22.80;62.90;;;;;;5035960;28;20226;-83
2023/06/23 06:52:23;;;;;;;4.22;3.67;;;22.80;63.00;;;;;;5036364;28;20696;-83
2023/06/23 06:54:54;;;;;;;4.20;3.80;;;22.80;63.10;;;;;;5036074;28;20197;-83
2023/06/23 06:57:20;;;;;;;5.43;3.92;;;22.90;62.90;;;;;;4986258;28;20213;-83
2023/06/23 06:59:47;;;;;;;4.45;3.83;;;22.90;62.90;;;;;;5054145;28;20155;-83
2023/06/23 07:02:13;;;;;;;4.80;4.20;;;22.80;63.00;;;;;;5019693;28;20211;-83
2023/06/23 07:04:39;;;;;;;4.47;4.07;;;22.80;63.00;;;;;;5036002;28;20540;-84
2023/06/23 07:07:05;;;;;;;4.65;4.07;;;22.80;63.20;;;;;;5054465;28;20155;-83
2023/06/23 07:09:31;;;;;;;4.18;3.78;;;22.80;63.10;;;;;;5036235;28;20161;-84
2023/06/23 07:12:01;;;;;;;4.38;3.80;;;22.90;63.00;;;;;;5036072;28;20613;-83
2023/06/23 07:14:27;;;;;;;4.38;3.97;;;22.90;63.20;;;;;;5002852;28;20637;-83
2023/06/23 07:16:54;;;;;;;4.57;4.00;;;22.90;63.30;;;;;;5035964;28;20161;-83
2023/06/23 07:19:20;;;;;;;4.50;4.10;;;22.80;63.20;;;;;;5036159;28;20216;-83
2023/06/23 07:21:50;;;;;;;4.50;4.10;;;22.80;63.30;;;;;;5035905;28;20154;-83
2023/06/23 07:24:15;;;;;;;4.72;4.22;;;22.90;63.20;;;;;;4970373;28;20189;-83
2023/06/23 07:26:46;;;;;;;5.07;4.40;;;22.90;63.30;;;;;;5021576;28;20178;-83
2023/06/23 07:29:16;;;;;;;4.32;3.88;;;22.80;63.40;;;;;;4989933;28;20224;-83
2023/06/23 07:31:42;;;;;;;4.55;3.95;;;22.80;63.40;;;;;;4989551;28;20210;-83
2023/06/23 07:34:08;;;;;;;4.90;4.22;;;22.80;63.50;;;;;;5022968;28;20162;-83
2023/06/23 07:36:34;;;;;;;5.10;4.45;;;22.80;63.60;;;;;;5022802;28;20212;-84
2023/06/23 07:39:00;;;;;;;4.70;4.20;;;22.80;63.50;;;;;;5038980;28;20313;-83
2023/06/23 07:41:25;;;;;;;4.90;4.35;;;22.80;63.60;;;;;;5039262;28;20233;-83
2023/06/23 07:43:51;;;;;;;5.07;4.38;;;22.80;63.60;;;;;;5038863;28;20224;-84
2023/06/23 07:46:17;;;;;;;4.50;4.10;;;22.90;63.70;;;;;;5038886;28;20150;-83
2023/06/23 07:48:43;;;;;;;4.82;4.32;;;22.80;63.60;;;;;;5038643;28;20271;-83
2023/06/23 07:51:13;;;;;;;4.50;4.10;;;22.80;63.60;;;;;;5038863;28;20177;-83
2023/06/23 07:53:39;;;;;;;4.72;4.20;;;22.90;63.60;;;;;;4989120;28;20193;-83
2023/06/23 07:56:12;;;;;;;4.25;3.85;;;22.90;63.60;;;;;;5021977;28;20652;-83
2023/06/23 07:58:39;;;;;;;4.82;4.32;;;22.80;63.70;;;;;;4974293;28;20216;-84
2023/06/23 08:01:06;;;;;;;4.90;4.40;;;22.90;63.30;;;;;;5055980;28;20584;-83
2023/06/23 08:03:32;;;;;;;4.50;4.10;;;22.90;63.20;;;;;;5055901;28;20164;-83
2023/06/23 08:06:03;;;;;;;5.10;4.20;;;22.90;63.20;;;;;;5056547;28;20146;-83
2023/06/23 08:08:29;;;;;;;5.75;4.40;;;22.90;63.10;;;;;;5005261;28;20181;-83
2023/06/23 08:10:58;;;;;;;4.65;4.18;;;22.90;63.30;;;;;;5021910;28;20579;-83
2023/06/23 08:13:28;;;;;;;4.95;4.30;;;22.90;63.30;;;;;;4988525;28;20218;-83
2023/06/23 08:15:54;;;;;;;4.75;4.25;;;22.90;63.20;;;;;;4988836;28;20196;-83
2023/06/23 08:18:20;;;;;;;4.78;4.28;;;22.90;63.20;;;;;;5038652;28;20197;-83
2023/06/23 08:20:50;;;;;;;5.20;4.70;;;22.90;63.20;;;;;;5022828;28;20158;-83
2023/06/23 08:23:16;;;;;;;4.35;3.95;;;22.90;63.20;;;;;;4988721;28;20213;-83
2023/06/23 08:25:42;;;;;;;5.03;4.53;;;23.00;62.80;;;;;;5021962;28;20154;-83
2023/06/23 08:28:08;;;;;;;4.82;4.32;;;23.00;62.70;;;;;;5038070;28;20164;-83
2023/06/23 08:30:38;;;;;;;4.70;4.20;;;23.00;62.80;;;;;;5056187;28;20163;-83
2023/06/23 08:33:04;;;;;;;5.00;4.50;;;23.10;62.60;;;;;;4988766;28;20177;-83
2023/06/23 08:35:34;;;;;;;4.65;4.25;;;23.00;62.40;;;;;;5055932;28;20208;-83
2023/06/23 08:38:00;;;;;;;4.75;4.25;;;23.00;62.50;;;;;;5004181;28;20352;-83
2023/06/23 08:40:26;;;;;;;4.45;3.90;;;23.00;62.40;;;;;;5038271;28;20212;-83
2023/06/23 08:42:52;;;;;;;4.63;4.07;;;23.00;62.60;;;;;;5038233;28;20158;-83
2023/06/23 08:45:23;;;;;;;5.00;4.50;;;23.00;62.80;;;;;;5055536;28;20150;-83
2023/06/23 08:47:51;;;;;;;4.72;4.22;;;23.10;62.30;;;;;;5004174;28;20182;-83
2023/06/23 08:50:17;;;;;;;5.10;4.60;;;23.10;62.40;;;;;;5021004;28;20710;-83
2023/06/23 08:52:43;;;;;;;5.00;4.32;;;23.00;62.20;;;;;;5037782;28;20233;-83
2023/06/23 08:55:10;;;;;;;4.53;4.13;;;23.00;62.00;;;;;;5037647;28;20178;-83
2023/06/23 08:57:38;;;;;;;4.07;3.67;;;23.10;61.90;;;;;;5020939;28;20220;-83
2023/06/23 09:00:06;;;;;;;5.10;4.40;;;23.10;61.60;;;;;;5055528;28;20146;-83
2023/06/23 09:02:32;;;;;;;4.47;4.00;;;23.10;61.80;;;;;;5037720;28;20158;-83
2023/06/23 09:04:58;;;;;;;4.82;4.18;;;23.20;61.30;;;;;;5055334;28;20154;-83
2023/06/23 09:07:24;;;;;;;4.57;4.05;;;23.20;61.30;;;;;;5037676;28;20215;-83
2023/06/23 09:09:50;;;;;;;4.63;3.92;;;23.20;61.00;;;;;;5055520;28;20158;-83
2023/06/23 09:12:20;;;;;;;4.80;4.40;;;23.20;60.80;;;;;;5037219;28;20608;-83
2023/06/23 09:14:51;;;;;;;4.55;4.10;;;23.20;60.80;;;;;;5021358;28;20216;-83
2023/06/23 09:17:18;;;;;;;4.57;4.18;;;23.20;60.70;;;;;;4987677;28;20235;-83
2023/06/23 09:19:49;;;;;;;5.43;4.40;;;23.20;61.00;;;;;;5037180;28;20170;-83
2023/06/23 09:22:22;;;;;;;4.80;4.30;;;23.20;60.90;;;;;;5004391;28;20200;-83
2023/06/23 09:24:49;;;;;;;5.07;4.57;;;23.10;61.00;;;;;;5055176;28;20154;-84
2023/06/23 09:27:15;;;;;;;4.95;4.35;;;23.10;60.70;;;;;;5036937;28;20170;-83
2023/06/23 09:29:42;;;;;;;4.22;3.83;;;23.10;60.30;;;;;;5020804;28;20570;-83
2023/06/23 09:32:09;;;;;;;4.10;3.70;;;23.20;60.30;;;;;;5020739;28;20632;-83
2023/06/23 09:34:36;;;;;;;4.38;3.97;;;23.20;60.20;;;;;;5037147;28;20567;-83
2023/06/23 09:37:09;;;;;;;4.30;3.78;;;23.20;60.20;;;;;;5020734;28;20173;-83
2023/06/23 09:39:37;;;;;;;4.20;3.80;;;23.20;59.80;;;;;;5055098;28;20161;-83
2023/06/23 09:42:13;;;;;;;4.75;4.22;;;23.30;59.70;;;;;;5020543;28;20161;-83
2023/06/23 09:44:45;;;;;;;4.05;3.63;;;23.30;59.90;;;;;;5005087;28;20189;-83
2023/06/23 09:47:17;;;;;;;4.13;3.67;;;23.30;59.80;;;;;;4988187;28;20185;-83
2023/06/23 09:49:48;;;;;;;4.78;4.28;;;23.30;59.40;;;;;;4993994;28;20222;-83
2023/06/23 09:52:22;;;;;;;4.72;3.90;;;23.30;59.50;;;;;;5037135;28;20193;-83
2023/06/23 09:54:52;;;;;;;4.57;4.13;;;23.30;59.40;;;;;;5057197;28;20172;-83
2023/06/23 09:57:18;;;;;;;4.22;3.70;;;23.20;59.50;;;;;;4990553;28;20208;-83
2023/06/23 09:59:45;;;;;;;4.40;4.00;;;23.30;59.30;;;;;;5057221;28;20267;-83
2023/06/23 10:02:27;;;;;;;4.28;3.88;;;23.30;59.30;;;;;;5040507;28;20226;-84
2023/06/23 10:05:02;;;;;;;4.40;4.00;;;23.30;59.30;;;;;;5056890;28;20164;-83
2023/06/23 10:07:28;;;;;;;4.65;3.90;;;23.30;59.20;;;;;;5057166;28;20160;-83
2023/06/23 10:09:56;;;;;;;4.20;3.80;;;23.30;59.20;;;;;;5056518;28;20170;-83
2023/06/23 10:12:27;;;;;;;4.15;3.75;;;23.30;59.20;;;;;;5040164;28;20165;-84
2023/06/23 10:14:55;;;;;;;4.38;3.95;;;23.30;59.10;;;;;;5023497;28;20193;-83
2023/06/23 10:17:21;;;;;;;4.38;3.80;;;23.30;59.00;;;;;;5056656;28;20287;-83
2023/06/23 10:19:48;;;;;;;4.40;4.00;;;23.30;58.80;;;;;;5074809;28;20199;-83
2023/06/23 10:22:16;;;;;;;3.70;3.30;;;23.30;59.00;;;;;;5057418;28;20176;-83
2023/06/23 10:24:46;;;;;;;4.85;4.18;;;23.30;58.80;;;;;;5056768;28;20154;-84
2023/06/23 10:27:16;;;;;;;3.90;3.50;;;23.40;59.40;;;;;;5039879;28;20166;-84
2023/06/23 10:29:47;;;;;;;4.80;3.92;;;23.30;58.60;;;;;;5056495;28;20637;-84
2023/06/23 10:32:13;;;;;;;4.88;3.60;;;23.30;58.80;;;;;;4990558;28;20177;-84
2023/06/23 10:34:43;;;;;;;4.30;3.90;;;23.30;58.80;;;;;;5074739;28;20639;-83
2023/06/23 10:37:10;;;;;;;4.32;3.92;;;23.30;58.60;;;;;;5023563;28;20181;-83
2023/06/23 10:39:36;;;;;;;4.60;4.10;;;23.40;58.00;;;;;;5074681;28;20162;-83
2023/06/23 10:42:02;;;;;;;4.30;3.90;;;23.40;58.10;;;;;;5056479;28;20177;-83
2023/06/23 10:44:32;;;;;;;4.93;4.38;;;23.30;58.10;;;;;;5056598;28;20158;-83
2023/06/23 10:47:02;;;;;;;4.40;3.85;;;23.30;58.30;;;;;;5022672;28;20644;-83
2023/06/23 10:49:32;;;;;;;4.03;3.50;;;23.30;58.10;;;;;;4990211;28;20232;-83
2023/06/23 10:51:58;;;;;;;4.28;3.88;;;23.30;57.80;;;;;;4990175;28;20173;-83
2023/06/23 10:54:30;;;;;;;3.75;3.42;;;23.30;57.70;;;;;;5056254;28;20591;-83
2023/06/23 10:56:57;;;;;;;4.00;3.60;;;23.30;57.60;;;;;;5007325;28;20181;-83
2023/06/23 10:59:28;;;;;;;3.70;3.38;;;23.20;57.40;;;;;;5074500;28;20188;-83
2023/06/23 11:02:15;;;;;;;4.30;3.90;;;23.30;57.30;;;;;;5060214;28;20154;-84
2023/06/23 11:05:02;;;;;;;3.92;3.53;;;23.30;57.30;;;;;;5078372;28;20157;-83
2023/06/23 11:07:28;;;;;;;4.03;3.63;;;23.30;57.10;;;;;;5060251;28;20169;-83
2023/06/23 11:10:05;;;;;;;4.63;3.80;;;23.30;57.10;;;;;;5043169;28;20172;-83
2023/06/23 11:12:39;;;;;;;3.78;3.38;;;23.30;56.90;;;;;;5043758;28;20180;-83
2023/06/23 11:15:27;;;;;;;4.00;3.60;;;23.30;56.90;;;;;;5077890;28;20173;-83
2023/06/23 11:18:06;;;;;;;4.20;3.72;;;23.30;57.00;;;;;;5060383;28;20243;-82
2023/06/23 11:20:35;;;;;;;4.00;3.47;;;23.30;57.00;;;;;;5043492;28;20172;-82
2023/06/23 11:23:07;;;;;;;4.05;3.65;;;23.30;56.90;;;;;;5043521;28;20162;-82
2023/06/23 11:25:47;;;;;;;3.83;3.42;;;23.20;56.90;;;;;;5077840;28;20152;-82
2023/06/23 11:28:37;;;;;;;4.53;3.80;;;23.30;56.90;;;;;;5060678;28;20176;-82
2023/06/23 11:31:18;;;;;;;4.40;3.90;;;23.30;56.70;;;;;;5059966;28;20165;-83
2023/06/23 11:33:45;;;;;;;4.13;3.72;;;23.30;56.90;;;;;;5043478;28;20161;-82
2023/06/23 11:36:19;;;;;;;4.30;3.90;;;23.30;56.60;;;;;;5078050;28;20165;-82
2023/06/23 11:38:45;;;;;;;4.25;3.75;;;23.30;56.60;;;;;;5043780;28;20215;-82
2023/06/23 11:41:13;;;;;;;4.07;3.63;;;23.30;56.40;;;;;;5059835;28;20621;-82
2023/06/23 11:43:45;;;;;;;3.88;3.47;;;23.30;56.30;;;;;;5059392;28;20153;-82
2023/06/23 11:46:15;;;;;;;4.30;3.90;;;23.30;56.20;;;;;;5010548;28;20189;-82
2023/06/23 11:48:42;;;;;;;3.88;3.47;;;23.40;56.00;;;;;;5019166;28;20230;-82
2023/06/23 11:51:09;;;;;;;4.10;3.70;;;23.40;55.80;;;;;;5035893;28;20167;-83
2023/06/23 11:53:35;;;;;;;4.07;3.67;;;23.40;55.90;;;;;;5052877;28;20154;-83
2023/06/23 11:56:02;;;;;;;4.75;3.92;;;23.40;55.80;;;;;;5036113;28;20198;-83
2023/06/23 11:58:30;;;;;;;3.90;3.50;;;23.40;55.80;;;;;;5035604;28;20679;-83
2023/06/23 12:00:56;;;;;;;3.90;3.50;;;23.40;56.00;;;;;;5035451;28;20163;-83
2023/06/23 12:03:22;;;;;;;4.03;3.63;;;23.40;56.40;;;;;;5052724;28;20155;-83
2023/06/23 12:05:48;;;;;;;4.20;3.80;;;23.40;57.30;;;;;;5037385;28;20247;-83
2023/06/23 12:08:18;;;;;;;3.90;3.50;;;23.40;56.70;;;;;;5037314;28;20159;-83
2023/06/23 12:10:44;;;;;;;3.80;3.50;;;23.40;56.80;;;;;;5035190;28;20513;-83
2023/06/23 12:13:16;;;;;;;4.18;3.63;;;23.40;56.90;;;;;;5034983;28;20166;-83
2023/06/23 12:15:43;;;;;;;3.78;3.38;;;23.40;56.80;;;;;;5018441;28;20232;-83
2023/06/23 12:18:09;;;;;;;3.90;3.50;;;23.40;56.90;;;;;;5035660;28;20676;-83
2023/06/23 12:20:36;;;;;;;4.20;3.72;;;23.40;57.10;;;;;;5052179;28;20158;-83
2023/06/23 12:23:03;;;;;;;4.10;3.60;;;23.40;57.30;;;;;;5036985;28;20170;-83
2023/06/23 12:25:35;;;;;;;3.90;3.40;;;23.40;57.30;;;;;;5052065;28;20676;-83
2023/06/23 12:28:03;;;;;;;4.57;3.78;;;23.40;57.60;;;;;;5051637;28;20163;-83
2023/06/23 12:30:39;;;;;;;3.92;3.53;;;23.30;57.40;;;;;;5034999;28;20174;-82
2023/06/23 12:33:13;;;;;;;4.03;3.63;;;23.40;57.40;;;;;;5051828;28;20158;-83
2023/06/23 12:35:40;;;;;;;3.92;3.53;;;23.40;57.60;;;;;;5052399;28;20164;-83
2023/06/23 12:38:11;;;;;;;4.10;3.70;;;23.40;57.60;;;;;;5052081;28;20182;-83
2023/06/23 12:40:39;;;;;;;4.45;3.65;;;23.40;57.60;;;;;;5018565;28;20179;-82
2023/06/23 12:43:09;;;;;;;4.10;3.70;;;23.40;57.60;;;;;;5051875;28;20692;-83
2023/06/23 12:45:36;;;;;;;4.20;3.80;;;23.40;57.80;;;;;;5034473;28;20653;-83
2023/06/23 12:48:02;;;;;;;3.60;3.30;;;23.40;57.70;;;;;;5052713;28;20181;-83
2023/06/23 12:50:36;;;;;;;3.55;3.25;;;23.40;57.90;;;;;;5058284;28;20668;-83
2023/06/23 12:53:02;;;;;;;4.07;3.63;;;23.40;57.70;;;;;;5008465;28;20181;-83
2023/06/23 12:55:28;;;;;;;3.65;3.33;;;23.40;57.80;;;;;;5076148;28;20260;-83